Time;durP1;ratioP1;P1;durP2;ratioP2;P2;SDS_P1;SDS_P2;PMS_P1;PMS_P2;Temp;Humidity;BMP_temperature;BMP_pressure;BME280_temperature;BME280_humidity;BME280_pressure;Samples;Min_cycle;Max_cycle;Signal;HPM_P1;HPM_P2
2022/10/17 00:01:45;;;;;;;7.97;3.13;;;;;;;14.24;100.00;96807.53;5064022;28;20037;-77
2022/10/17 00:04:11;;;;;;;4.97;2.33;;;;;;;14.12;100.00;96799.97;5065489;28;20513;-77
2022/10/17 00:06:36;;;;;;;4.63;1.60;;;;;;;14.25;100.00;96804.75;5043997;28;20036;-77
2022/10/17 00:09:03;;;;;;;5.43;1.40;;;;;;;14.38;100.00;96799.75;5066426;28;20032;-77
2022/10/17 00:11:29;;;;;;;3.33;1.95;;;;;;;14.48;100.00;96798.72;5048318;28;20029;-77
2022/10/17 00:13:55;;;;;;;4.65;1.77;;;;;;;14.48;100.00;96804.00;5064296;28;20029;-77
2022/10/17 00:16:24;;;;;;;2.67;1.33;;;;;;;14.42;100.00;96809.97;5064652;28;20697;-77
2022/10/17 00:18:49;;;;;;;3.70;1.67;;;;;;;14.51;100.00;96799.22;5062391;28;20437;-78
2022/10/17 00:21:17;;;;;;;4.57;1.40;;;;;;;14.45;100.00;96801.69;5066228;28;20119;-77
2022/10/17 00:23:44;;;;;;;4.38;1.60;;;;;;;14.28;100.00;96809.66;5065592;28;20093;-77
2022/10/17 00:26:09;;;;;;;4.05;1.20;;;;;;;14.17;100.00;96812.66;5066613;28;20028;-77
2022/10/17 00:28:35;;;;;;;2.38;1.40;;;;;;;14.10;100.00;96812.50;5047776;28;20527;-78
2022/10/17 00:31:03;;;;;;;3.55;1.20;;;;;;;13.97;100.00;96811.38;5065274;28;20055;-77
2022/10/17 00:33:30;;;;;;;4.05;1.83;;;;;;;13.90;100.00;96824.44;5065512;28;20024;-77
2022/10/17 00:36:17;;;;;;;2.00;1.30;;;;;;;14.11;100.00;96810.69;5065861;28;20034;-77
2022/10/17 00:38:44;;;;;;;3.53;1.52;;;;;;;14.10;100.00;96811.69;5065852;28;20702;-77
2022/10/17 00:41:13;;;;;;;2.53;1.15;;;;;;;14.06;100.00;96823.59;5065350;28;20134;-77
2022/10/17 00:43:54;;;;;;;3.90;1.58;;;;;;;14.05;100.00;96821.94;5065111;28;20029;-77
2022/10/17 00:46:21;;;;;;;4.57;1.77;;;;;;;13.95;100.00;96818.63;5048274;28;20123;-76
2022/10/17 00:48:53;;;;;;;6.82;1.90;;;;;;;13.87;100.00;96822.13;5064828;28;20502;-77
2022/10/17 00:51:26;;;;;;;3.63;1.80;;;;;;;13.93;100.00;96823.28;5048192;28;20055;-77
2022/10/17 00:53:52;;;;;;;7.07;1.80;;;;;;;13.90;100.00;96822.59;5066846;28;20036;-77
2022/10/17 00:56:20;;;;;;;7.15;3.22;;;;;;;13.94;100.00;96823.09;5045183;28;20037;-77
2022/10/17 00:58:46;;;;;;;88.45;34.58;;;;;;;14.01;100.00;96825.91;5062387;28;20104;-77
2022/10/17 01:01:12;;;;;;;78.13;31.67;;;;;;;13.99;100.00;96822.63;5047701;28;20107;-77
2022/10/17 01:03:37;;;;;;;43.97;18.17;;;;;;;13.98;100.00;96827.06;5063317;28;20116;-77
2022/10/17 01:06:03;;;;;;;37.28;14.35;;;;;;;13.99;100.00;96825.25;5045116;28;20386;-77
2022/10/17 01:08:29;;;;;;;36.20;15.18;;;;;;;14.04;100.00;96823.75;5055251;28;20090;-77
2022/10/17 01:11:22;;;;;;;32.70;11.90;;;;;;;14.06;100.00;96823.59;5065344;28;20074;-77
2022/10/17 01:14:29;;;;;;;13.27;4.57;;;;;;;14.19;100.00;96823.91;5065120;28;20499;-76
2022/10/17 01:17:06;;;;;;;13.67;3.93;;;;;;;14.04;100.00;96823.75;5061693;28;20041;-77
2022/10/17 01:19:55;;;;;;;5.93;2.40;;;;;;;14.07;100.00;96820.78;5039892;28;20043;-77
2022/10/17 01:22:36;;;;;;;16.88;3.65;;;;;;;14.02;100.00;96828.41;5045724;28;20055;-76
2022/10/17 01:25:07;;;;;;;10.90;4.07;;;;;;;14.02;100.00;96824.94;5064271;28;20024;-77
2022/10/17 01:27:51;;;;;;;10.52;4.10;;;;;;;13.98;100.00;96820.94;5064145;28;20060;-76
2022/10/17 01:30:43;;;;;;;6.40;2.30;;;;;;;14.03;100.00;96822.13;5056746;28;20032;-77
2022/10/17 01:33:41;;;;;;;7.65;2.80;;;;;;;13.90;100.00;96822.59;5065496;28;20025;-77
2022/10/17 01:36:32;;;;;;;9.13;3.47;;;;;;;13.94;100.00;96823.09;5039433;28;20036;-77
2022/10/17 01:39:09;;;;;;;51.53;19.17;;;;;;;13.95;100.00;96819.47;5063557;28;20032;-77
2022/10/17 01:42:18;;;;;;;83.30;30.60;;;;;;;14.09;100.00;96821.44;5065146;28;20685;-77
2022/10/17 01:45:07;;;;;;;136.80;50.60;;;;;;;14.15;100.00;96817.28;5063415;28;20044;-77
2022/10/17 01:47:33;;;;;;;70.93;26.70;;;;;;;14.21;100.00;96810.50;5067150;28;20362;-77
2022/10/17 01:50:10;;;;;;;38.73;14.23;;;;;;;14.24;100.00;96818.94;5052192;28;20829;-77
2022/10/17 01:52:44;;;;;;;18.97;7.77;;;;;;;14.26;100.00;96811.69;5068336;28;20044;-76
2022/10/17 01:55:18;;;;;;;8.15;3.08;;;;;;;14.29;100.00;96799.94;5068409;28;20097;-77
2022/10/17 01:57:50;;;;;;;7.20;2.70;;;;;;;14.20;100.00;96807.06;5061542;28;20107;-76
2022/10/17 02:00:20;;;;;;;6.27;2.37;;;;;;;14.18;100.00;96797.63;5052038;28;20036;-76
2022/10/17 02:02:55;;;;;;;7.45;2.13;;;;;;;14.14;100.00;96805.06;5072276;28;20024;-77
2022/10/17 02:05:25;;;;;;;12.38;4.32;;;;;;;14.07;100.00;96806.72;5072266;28;20835;-77
2022/10/17 02:07:51;;;;;;;31.65;10.85;;;;;;;14.15;100.00;96809.34;5068576;28;20081;-77
2022/10/17 02:10:51;;;;;;;18.90;6.65;;;;;;;14.11;100.00;96800.94;5071999;28;20028;-77
2022/10/17 02:13:26;;;;;;;11.57;2.88;;;;;;;14.07;100.00;96804.09;5071450;28;20024;-77
2022/10/17 02:16:06;;;;;;;8.37;2.27;;;;;;;14.08;100.00;96798.66;5070530;28;20403;-77
2022/10/17 02:18:57;;;;;;;5.03;1.80;;;;;;;14.04;100.00;96809.72;5053711;28;20098;-77
2022/10/17 02:21:30;;;;;;;5.20;1.50;;;;;;;14.08;100.00;96808.38;5063065;28;20055;-77
2022/10/17 02:24:10;;;;;;;5.35;1.30;;;;;;;14.14;100.00;96802.44;5072067;28;20070;-77
2022/10/17 02:26:52;;;;;;;5.97;1.80;;;;;;;14.05;100.00;96796.34;5071686;28;20110;-77
2022/10/17 02:29:46;;;;;;;4.13;1.55;;;;;;;14.12;100.00;96796.50;5048512;28;20097;-77
2022/10/17 02:32:26;;;;;;;2.35;1.30;;;;;;;14.18;100.00;96795.78;5070705;28;20036;-76
2022/10/17 02:34:55;;;;;;;3.00;1.40;;;;;;;14.21;100.00;96799.94;5070761;28;20487;-76
2022/10/17 02:37:26;;;;;;;7.20;2.38;;;;;;;14.15;100.00;96799.63;5047364;28;20054;-77
2022/10/17 02:39:55;;;;;;;8.60;3.03;;;;;;;14.21;100.00;96792.00;5069427;28;20075;-77
2022/10/17 02:42:23;;;;;;;10.18;2.95;;;;;;;14.22;100.00;96791.00;5052189;28;20050;-77
2022/10/17 02:44:51;;;;;;;10.32;3.03;;;;;;;14.17;100.00;96798.63;5071705;28;20047;-77
2022/10/17 02:47:22;;;;;;;11.32;3.50;;;;;;;14.13;100.00;96795.50;5069658;28;20035;-77
2022/10/17 02:49:54;;;;;;;7.47;2.33;;;;;;;14.16;100.00;96789.88;5069393;28;20539;-77
2022/10/17 02:52:48;;;;;;;10.52;2.90;;;;;;;14.19;100.00;96791.34;5069127;28;20037;-77
2022/10/17 02:55:16;;;;;;;;;;;;;;;14.13;100.00;96793.66;5064720;28;20559;-77
2022/10/17 02:57:59;;;;;;;9.55;1.83;;;;;;;14.03;100.00;96794.84;5066164;28;19912;-77
2022/10/17 03:00:27;;;;;;;6.07;1.73;;;;;;;13.98;100.00;96792.69;5058089;28;20087;-77
2022/10/17 03:02:55;;;;;;;5.20;1.60;;;;;;;13.97;100.00;96792.88;5066699;28;20377;-76
2022/10/17 03:05:23;;;;;;;4.57;1.55;;;;;;;13.87;100.00;96796.50;5049159;28;20043;-77
2022/10/17 03:07:49;;;;;;;4.40;1.43;;;;;;;13.93;100.00;96796.84;5066966;28;20128;-77
2022/10/17 03:10:16;;;;;;;5.30;1.67;;;;;;;13.89;100.00;96799.00;5066131;28;20044;-77
2022/10/17 03:12:42;;;;;;;4.43;1.80;;;;;;;13.88;100.00;96805.25;5067266;28;20406;-77
2022/10/17 03:15:09;;;;;;;4.45;1.27;;;;;;;13.83;100.00;96805.75;5067101;28;20098;-77
2022/10/17 03:17:35;;;;;;;6.00;2.13;;;;;;;13.81;100.00;96802.44;5066748;28;20119;-77
2022/10/17 03:20:02;;;;;;;3.28;1.77;;;;;;;13.66;100.00;96814.69;5050397;28;20025;-77
2022/10/17 03:22:28;;;;;;;8.47;1.60;;;;;;;13.61;100.00;96814.31;5066840;28;20090;-77
2022/10/17 03:24:55;;;;;;;3.33;1.67;;;;;;;13.55;100.00;96815.00;5047603;28;20531;-77
2022/10/17 03:27:21;;;;;;;6.27;1.70;;;;;;;13.41;100.00;96822.59;5064684;28;20024;-77
2022/10/17 03:29:47;;;;;;;2.83;1.20;;;;;;;13.30;100.00;96824.69;5054636;28;20090;-77
2022/10/17 03:32:14;;;;;;;4.37;1.67;;;;;;;13.20;100.00;96822.16;5044435;28;20044;-77
2022/10/17 03:34:39;;;;;;;3.37;1.43;;;;;;;13.08;100.00;96820.81;5062920;28;20033;-77
2022/10/17 03:37:05;;;;;;;12.10;1.50;;;;;;;13.00;100.00;96828.69;5062675;28;20583;-76
2022/10/17 03:39:33;;;;;;;4.40;1.20;;;;;;;12.81;100.00;96835.91;5065563;28;20111;-77
2022/10/17 03:41:59;;;;;;;6.07;1.57;;;;;;;12.68;100.00;96836.31;5046240;28;20028;-77
2022/10/17 03:44:25;;;;;;;3.53;1.53;;;;;;;12.64;100.00;96840.28;5047143;28;20415;-77
2022/10/17 03:46:51;;;;;;;3.47;1.50;;;;;;;12.57;100.00;96838.38;5050302;28;20121;-77
2022/10/17 03:49:16;;;;;;;5.90;1.53;;;;;;;12.54;100.00;96843.97;5047143;28;20040;-76
2022/10/17 03:51:42;;;;;;;4.37;1.30;;;;;;;12.53;100.00;96843.16;5045868;28;20800;-77
2022/10/17 03:54:12;;;;;;;6.53;1.50;;;;;;;12.47;100.00;96844.63;5049920;28;20111;-77
2022/10/17 03:56:38;;;;;;;3.83;1.27;;;;;;;12.43;100.00;96853.00;5049702;28;20024;-76
2022/10/17 03:59:12;;;;;;;7.07;2.00;;;;;;;12.35;100.00;96848.50;5064077;28;20111;-77
2022/10/17 04:01:38;;;;;;;5.80;2.17;;;;;;;12.29;100.00;96848.28;5065871;28;20117;-77
2022/10/17 04:04:04;;;;;;;5.47;2.17;;;;;;;12.25;100.00;96848.59;5049010;28;20149;-77
2022/10/17 04:06:33;;;;;;;4.53;1.77;;;;;;;12.26;100.00;96844.16;5049967;28;20078;-77
2022/10/17 04:08:59;;;;;;;6.23;1.83;;;;;;;12.30;100.00;96850.75;5064685;28;20029;-77
2022/10/17 04:11:41;;;;;;;7.07;1.53;;;;;;;12.29;100.00;96851.75;5063505;28;20038;-78
2022/10/17 04:14:06;;;;;;;3.87;1.70;;;;;;;12.30;100.00;96852.56;5043530;28;20115;-76
2022/10/17 04:16:32;;;;;;;6.43;1.73;;;;;;;12.23;100.00;96857.63;5066849;28;20086;-77
2022/10/17 04:19:02;;;;;;;6.10;1.90;;;;;;;12.16;100.00;96856.59;5046977;28;20411;-77
2022/10/17 04:21:33;;;;;;;5.87;1.63;;;;;;;12.09;100.00;96860.84;5050289;28;20123;-78
2022/10/17 04:24:04;;;;;;;6.97;2.40;;;;;;;12.08;100.00;96861.81;5049138;28;20399;-77
2022/10/17 04:26:58;;;;;;;7.20;2.17;;;;;;;12.01;100.00;96875.63;5029288;28;20033;-76
2022/10/17 04:29:27;;;;;;;5.50;1.73;;;;;;;11.89;100.00;96882.09;5062305;28;20036;-77
2022/10/17 04:32:02;;;;;;;6.17;1.80;;;;;;;11.82;100.00;96888.09;5061185;28;20034;-77
2022/10/17 04:34:41;;;;;;;5.63;2.30;;;;;;;11.82;100.00;96886.28;5062893;28;20056;-77
2022/10/17 04:37:07;;;;;;;6.17;1.80;;;;;;;11.86;100.00;96879.75;5064527;28;20485;-77
2022/10/17 04:39:33;;;;;;;4.20;1.60;;;;;;;11.84;100.00;96883.47;5064419;28;20442;-77
2022/10/17 04:41:59;;;;;;;5.33;2.10;;;;;;;11.88;100.00;96884.88;5048898;28;20035;-77
2022/10/17 04:44:24;;;;;;;4.77;2.00;;;;;;;11.87;100.00;96891.13;5066411;28;20039;-77
2022/10/17 04:46:51;;;;;;;5.20;1.73;;;;;;;11.88;100.00;96884.88;5048868;28;20029;-77
2022/10/17 04:49:18;;;;;;;3.13;1.70;;;;;;;11.84;100.00;96884.38;5065531;28;20147;-76
2022/10/17 04:51:47;;;;;;;6.73;1.60;;;;;;;11.82;100.00;96891.56;5045245;28;20035;-77
2022/10/17 04:54:19;;;;;;;7.53;1.98;;;;;;;11.77;100.00;96893.81;5048651;28;20028;-77
2022/10/17 04:56:51;;;;;;;6.67;1.77;;;;;;;11.72;100.00;96886.34;5060148;28;20033;-76
2022/10/17 04:59:17;;;;;;;3.37;1.60;;;;;;;11.72;100.00;96890.81;5046581;28;20487;-76
2022/10/17 05:01:45;;;;;;;6.17;2.00;;;;;;;11.70;100.00;96888.31;5047038;28;20024;-77
2022/10/17 05:04:11;;;;;;;7.13;1.83;;;;;;;11.67;100.00;96901.78;5046778;28;20028;-77
2022/10/17 05:06:37;;;;;;;8.50;1.70;;;;;;;11.57;100.00;96899.22;5063206;28;20042;-77
2022/10/17 05:09:26;;;;;;;2.73;1.60;;;;;;;11.57;100.00;96898.41;5062257;28;20044;-76
2022/10/17 05:11:52;;;;;;;6.30;2.20;;;;;;;11.59;100.00;96901.69;5064821;28;20024;-77
2022/10/17 05:14:18;;;;;;;5.90;1.80;;;;;;;11.49;100.00;96896.50;5048655;28;20052;-77
2022/10/17 05:16:44;;;;;;;8.73;5.27;;;;;;;11.49;100.00;96900.94;5063901;28;20012;-77
2022/10/17 05:19:10;;;;;;;9.20;5.40;;;;;;;11.49;100.00;96904.41;5065075;28;20394;-77
2022/10/17 05:21:42;;;;;;;7.57;4.70;;;;;;;11.48;100.00;96905.38;5059108;28;20021;-77
2022/10/17 05:24:10;;;;;;;9.20;3.17;;;;;;;11.47;100.00;96902.91;5050205;28;20040;-77
2022/10/17 05:26:37;;;;;;;3.93;2.10;;;;;;;11.35;100.00;96904.91;5050328;28;20032;-77
2022/10/17 05:29:04;;;;;;;9.33;2.50;;;;;;;11.29;100.00;96913.38;5053554;28;20115;-77
2022/10/17 05:31:34;;;;;;;6.43;2.00;;;;;;;11.34;100.00;96919.06;5069329;28;20513;-77
2022/10/17 05:34:03;;;;;;;7.77;2.03;;;;;;;11.41;100.00;96917.47;5068887;28;20036;-77
2022/10/17 05:36:31;;;;;;;4.17;1.90;;;;;;;11.45;100.00;96918.84;5068768;28;20032;-77
2022/10/17 05:38:59;;;;;;;5.17;2.23;;;;;;;11.55;100.00;96916.97;5051390;28;20028;-76
2022/10/17 05:41:25;;;;;;;6.77;2.13;;;;;;;11.52;100.00;96917.28;5068813;28;20043;-77
2022/10/17 05:43:51;;;;;;;5.03;1.90;;;;;;;11.59;100.00;96924.59;5069094;28;20024;-77
2022/10/17 05:46:21;;;;;;;3.13;1.60;;;;;;;11.67;100.00;96924.66;5051526;28;20103;-77
2022/10/17 05:48:47;;;;;;;5.93;1.77;;;;;;;11.70;100.00;96921.72;5043186;28;20043;-77
2022/10/17 05:51:12;;;;;;;7.77;2.30;;;;;;;11.66;100.00;96925.63;5062757;28;20471;-77
2022/10/17 05:53:41;;;;;;;5.23;2.23;;;;;;;11.61;100.00;96923.47;5049309;28;20041;-77
2022/10/17 05:56:13;;;;;;;4.03;2.20;;;;;;;11.63;100.00;96925.94;5051796;28;20086;-76
2022/10/17 05:58:41;;;;;;;10.63;2.53;;;;;;;11.55;100.00;96926.69;5060459;28;20434;-77
2022/10/17 06:01:12;;;;;;;7.78;1.95;;;;;;;11.63;100.00;96920.66;5066557;28;20031;-76
2022/10/17 06:03:38;;;;;;;5.03;1.80;;;;;;;11.72;100.00;96932.97;5066616;28;20075;-77
2022/10/17 06:06:07;;;;;;;10.37;2.07;;;;;;;11.90;100.00;96930.34;5062508;28;20393;-76
2022/10/17 06:08:34;;;;;;;6.90;1.97;;;;;;;12.01;100.00;96920.44;5049292;28;20505;-77
2022/10/17 06:11:00;;;;;;;7.77;1.83;;;;;;;12.11;100.00;96922.16;5063489;28;20028;-77
2022/10/17 06:13:26;;;;;;;6.43;1.83;;;;;;;12.27;100.00;96928.41;5065400;28;20965;-76
2022/10/17 06:15:53;;;;;;;5.33;1.70;;;;;;;12.43;100.00;96919.75;5048117;28;20078;-76
2022/10/17 06:18:18;;;;;;;5.07;1.93;;;;;;;12.57;100.00;96921.00;5066505;28;20913;-76
2022/10/17 06:20:44;;;;;;;5.60;1.83;;;;;;;12.65;100.00;96923.72;5065674;28;20040;-76
2022/10/17 06:23:10;;;;;;;4.67;1.67;;;;;;;12.70;100.00;96925.88;5066070;28;20032;-77
2022/10/17 06:25:52;;;;;;;5.77;1.77;;;;;;;12.75;100.00;96926.25;5065002;28;20016;-77
2022/10/17 06:28:18;;;;;;;6.23;1.80;;;;;;;12.84;100.00;96925.28;5063897;28;20106;-77
2022/10/17 06:30:44;;;;;;;8.23;2.10;;;;;;;12.96;100.00;96924.06;5062011;28;20054;-77
2022/10/17 06:33:10;;;;;;;4.77;1.80;;;;;;;13.15;100.00;96928.28;5046336;28;20024;-77
2022/10/17 06:35:36;;;;;;;11.53;1.93;;;;;;;13.37;100.00;96931.38;5064186;28;20047;-76
2022/10/17 06:38:02;;;;;;;8.43;1.90;;;;;;;13.61;100.00;96917.41;5020189;28;20044;-77
2022/10/17 06:40:30;;;;;;;8.97;2.17;;;;;;;13.78;100.00;96924.41;4995553;28;20036;-77
2022/10/17 06:42:56;;;;;;;8.43;2.97;;;;;;;13.81;100.00;96924.03;4998134;28;20025;-77
2022/10/17 06:45:40;;;;;;;4.03;1.90;;;;;;;13.94;100.00;96933.34;5000292;28;20089;-76
2022/10/17 06:48:15;;;;;;;3.67;1.80;;;;;;;14.05;100.00;96944.44;4995747;28;20495;-77
2022/10/17 06:51:10;;;;;;;;;;;;;;;14.47;100.00;96935.50;4998236;28;20086;-77
2022/10/17 06:53:46;;;;;;;4.57;2.20;;;;;;;14.34;100.00;96935.19;4997162;28;19920;-77
2022/10/17 06:56:28;;;;;;;8.40;3.03;;;;;;;14.56;100.00;96939.84;4999658;28;20044;-77
2022/10/17 06:59:17;;;;;;;12.20;2.80;;;;;;;14.60;100.00;96940.34;4996157;28;20036;-77
2022/10/17 07:01:55;;;;;;;9.43;3.07;;;;;;;14.88;100.00;96939.94;4997599;28;20036;-77
2022/10/17 07:04:23;;;;;;;5.87;2.63;;;;;;;15.16;100.00;96930.63;4994906;28;20403;-77
2022/10/17 07:06:48;;;;;;;8.25;2.72;;;;;;;14.95;100.00;96930.34;4998838;28;20102;-76
2022/10/17 07:09:18;;;;;;;5.35;2.72;;;;;;;15.50;100.00;96942.75;5023399;28;20040;-77
2022/10/17 07:11:44;;;;;;;4.13;2.53;;;;;;;15.85;100.00;96940.59;4998742;28;20043;-77
2022/10/17 07:14:10;;;;;;;10.80;3.20;;;;;;;15.83;100.00;96937.28;5007635;28;20033;-77
2022/10/17 07:16:36;;;;;;;6.63;2.50;;;;;;;15.67;100.00;96954.13;5008883;28;20032;-77
2022/10/17 07:19:13;;;;;;;7.45;2.38;;;;;;;16.09;100.00;96947.56;4991442;28;20483;-77
2022/10/17 07:21:38;;;;;;;6.95;3.35;;;;;;;16.70;100.00;96935.16;5007675;28;20036;-77
2022/10/17 07:24:06;;;;;;;8.93;3.25;;;;;;;16.58;100.00;96945.38;4991213;28;20115;-77
2022/10/17 07:26:32;;;;;;;6.13;2.83;;;;;;;16.75;100.00;96947.91;5002649;28;20051;-77
2022/10/17 07:28:59;;;;;;;8.07;2.80;;;;;;;16.70;100.00;96946.59;5006751;28;20029;-77
2022/10/17 07:31:41;;;;;;;8.85;3.28;;;;;;;16.65;100.00;96958.75;5007631;28;20178;-77
2022/10/17 07:34:07;;;;;;;11.00;3.72;;;;;;;17.33;100.00;96951.63;5008802;28;20499;-77
2022/10/17 07:36:33;;;;;;;6.72;3.25;;;;;;;17.80;100.00;96947.72;5005243;28;20082;-77
2022/10/17 07:39:01;;;;;;;7.03;3.15;;;;;;;18.12;100.00;96947.28;5026335;28;21320;-76
2022/10/17 07:41:29;;;;;;;7.57;3.35;;;;;;;17.94;100.00;96956.69;5037013;28;20040;-76
2022/10/17 07:43:56;;;;;;;8.35;3.08;;;;;;;18.14;100.00;96942.59;5019973;28;20051;-77
2022/10/17 07:46:28;;;;;;;8.43;2.80;;;;;;;18.77;100.00;96940.09;5022357;28;20553;-77
2022/10/17 07:48:53;;;;;;;6.57;2.78;;;;;;;18.93;100.00;96938.97;5014745;28;20036;-77
2022/10/17 07:51:20;;;;;;;6.68;2.80;;;;;;;18.78;100.00;96946.28;5043106;28;20037;-77
2022/10/17 07:53:47;;;;;;;8.07;2.70;;;;;;;19.78;100.00;96939.66;5039583;28;20047;-77
2022/10/17 07:56:13;;;;;;;5.18;2.50;;;;;;;19.23;100.00;96952.91;5007272;28;20021;-78
2022/10/17 07:58:39;;;;;;;10.65;3.08;;;;;;;20.23;100.00;96946.16;5023147;28;20493;-77
2022/10/17 08:01:07;;;;;;;7.85;3.03;;;;;;;20.42;100.00;96939.22;5033365;28;20739;-77
2022/10/17 08:03:32;;;;;;;7.10;2.95;;;;;;;20.64;100.00;96942.53;5034140;28;20111;-77
2022/10/17 08:05:59;;;;;;;9.60;3.15;;;;;;;20.67;100.00;96944.78;5035376;28;20033;-77
2022/10/17 08:08:26;;;;;;;10.57;3.13;;;;;;;20.33;100.00;96944.94;5029760;28;20033;-77
2022/10/17 08:10:53;;;;;;;5.72;2.80;;;;;;;;;;5036488;28;20039;-77
2022/10/17 08:13:18;;;;;;;5.45;2.50;;;;;;;20.71;100.00;96948.69;5063041;28;20060;-77
2022/10/17 08:15:46;;;;;;;7.72;2.53;;;;;;;20.64;100.00;96947.06;5060245;28;20063;-77
2022/10/17 08:18:13;;;;;;;8.77;3.00;;;;;;;;;;5057928;28;20040;-77
2022/10/17 08:20:39;;;;;;;7.20;2.65;;;;;;;21.13;100.00;96943.13;5038091;28;20032;-76
2022/10/17 08:23:05;;;;;;;8.75;3.05;;;;;;;21.44;100.00;96941.63;5041772;28;20067;-77
2022/10/17 08:25:32;;;;;;;9.10;2.72;;;;;;;21.01;100.00;96948.28;4992541;28;20039;-76
2022/10/17 08:27:58;;;;;;;10.68;2.90;;;;;;;21.88;100.00;96941.66;4981564;28;20055;-76
2022/10/17 08:30:23;;;;;;;7.10;2.38;;;;;;;22.57;100.00;96949.94;4921284;28;20051;-76
2022/10/17 08:32:49;;;;;;;8.75;2.80;;;;;;;22.95;100.00;96954.41;4916532;28;20094;-77
2022/10/17 08:35:16;;;;;;;7.18;2.65;;;;;;;23.26;100.00;96951.63;4915354;28;21063;-78
2022/10/17 08:37:41;;;;;;;7.50;2.10;;;;;;;23.62;100.00;96952.69;4909554;28;20035;-78
2022/10/17 08:40:23;;;;;;;6.38;1.88;;;;;;;23.95;100.00;96940.75;4887977;28;20032;-77
2022/10/17 08:42:49;;;;;;;6.32;2.20;;;;;;;23.23;100.00;96951.25;4898218;28;20044;-78
2022/10/17 08:45:28;;;;;;;5.43;2.55;;;;;;;22.71;100.00;96954.16;4915700;28;20044;-77
2022/10/17 08:47:59;;;;;;;6.20;2.58;;;;;;;23.21;100.00;96948.78;4895416;28;20483;-77
2022/10/17 08:50:41;;;;;;;5.22;2.00;;;;;;;23.64;100.00;96947.94;4946957;28;20131;-77
2022/10/17 08:53:34;;;;;;;7.80;2.60;;;;;;;23.41;100.00;96951.28;4988591;28;20942;-77
2022/10/17 08:56:14;;;;;;;7.93;2.10;;;;;;;24.08;100.00;96948.66;5022095;28;20499;-77
2022/10/17 08:58:40;;;;;;;5.40;2.30;;;;;;;24.19;100.00;96955.09;5026953;28;20455;-77
2022/10/17 09:01:24;;;;;;;7.53;2.38;;;;;;;23.69;100.00;96944.59;5058310;28;20513;-77
2022/10/17 09:03:59;;;;;;;5.15;1.95;;;;;;;23.50;100.00;96954.47;5057972;28;20132;-77
2022/10/17 09:06:31;;;;;;;3.83;1.95;;;;;;;23.79;100.00;96944.88;5063362;28;20600;-77
2022/10/17 09:09:35;;;;;;;5.32;2.20;;;;;;;23.86;100.00;96945.59;5020284;28;20043;-77
2022/10/17 09:12:23;;;;;;;9.55;2.50;;;;;;;24.08;100.00;96945.09;5040429;28;20052;-77
2022/10/17 09:15:14;;;;;;;3.53;2.00;;;;;;;24.19;99.71;96955.91;5027415;28;21543;-78
2022/10/17 09:18:09;;;;;;;5.15;1.83;;;;;;;24.85;97.39;96948.75;5023962;28;20043;-78
2022/10/17 09:21:22;;;;;;;5.40;1.90;;;;;;;25.08;89.37;96947.97;5024697;28;20058;-78
2022/10/17 09:23:52;;;;;;;3.58;1.50;;;;;;;25.28;92.30;96950.28;5012809;28;21252;-77
2022/10/17 09:26:17;;;;;;;4.53;1.80;;;;;;;24.18;98.43;96950.78;5023761;28;20169;-77
2022/10/17 09:28:45;;;;;;;3.85;1.70;;;;;;;23.71;99.81;96959.44;5021670;28;20040;-78
2022/10/17 09:31:17;;;;;;;3.05;1.70;;;;;;;24.45;98.19;96948.56;5024541;28;20048;-77
2022/10/17 09:33:49;;;;;;;5.53;1.73;;;;;;;24.14;99.16;96945.03;5024174;28;20046;-77
2022/10/17 09:36:27;;;;;;;3.75;1.80;;;;;;;24.76;94.94;96944.75;5004966;28;20183;-77
2022/10/17 09:38:55;;;;;;;5.10;1.88;;;;;;;24.33;97.84;96944.97;5019601;28;20399;-77
2022/10/17 09:41:39;;;;;;;2.92;1.60;;;;;;;25.04;93.71;96940.56;5022398;28;21579;-78
2022/10/17 09:44:32;;;;;;;7.07;1.98;;;;;;;25.19;94.54;96940.97;5024783;28;20470;-78
2022/10/17 09:47:10;;;;;;;4.07;1.75;;;;;;;25.15;87.49;96942.47;5023768;28;20483;-77
2022/10/17 09:49:38;;;;;;;6.38;1.45;;;;;;;25.43;87.70;96944.44;5022403;28;20032;-78
2022/10/17 09:52:10;;;;;;;3.65;1.55;;;;;;;26.12;78.82;96949.09;5020904;28;20107;-78
2022/10/17 09:54:48;;;;;;;4.60;1.50;;;;;;;26.00;81.93;96947.25;5023613;28;20107;-78
2022/10/17 09:57:16;;;;;;;2.58;1.58;;;;;;;25.91;80.70;96943.31;5015665;28;20032;-78
2022/10/17 09:59:44;;;;;;;3.88;1.50;;;;;;;25.94;82.23;96939.31;5019505;28;20526;-78
2022/10/17 10:02:16;;;;;;;3.60;1.73;;;;;;;26.19;77.67;96947.06;5019579;28;20037;-78
2022/10/17 10:04:51;;;;;;;5.25;1.50;;;;;;;26.63;75.68;96947.34;5022876;28;20120;-79
2022/10/17 10:07:19;;;;;;;4.63;1.70;;;;;;;26.71;73.94;96939.66;5025948;28;20040;-78
2022/10/17 10:09:47;;;;;;;2.75;1.77;;;;;;;25.64;78.42;96941.13;5059365;28;20147;-78
2022/10/17 10:12:36;;;;;;;6.30;2.53;;;;;;;26.60;71.30;96947.84;5065596;28;20031;-77
2022/10/17 10:15:35;;;;;;;5.80;1.48;;;;;;;27.33;65.67;96948.72;5063862;28;20058;-78
2022/10/17 10:18:02;;;;;;;5.25;1.77;;;;;;;27.30;64.69;96944.66;5066324;28;20142;-78
2022/10/17 10:20:36;;;;;;;6.57;1.88;;;;;;;26.03;73.66;96954.06;5065387;28;20103;-78
2022/10/17 10:23:20;;;;;;;2.97;1.50;;;;;;;26.74;67.24;96944.56;5062651;28;20086;-78
2022/10/17 10:25:53;;;;;;;3.75;1.55;;;;;;;27.31;68.58;96940.88;5024435;28;20543;-77
2022/10/17 10:28:30;;;;;;;4.28;1.45;;;;;;;26.14;70.92;96950.50;5008756;28;20035;-78
2022/10/17 10:31:01;;;;;;;2.28;1.40;;;;;;;25.84;76.89;96946.13;5003841;28;20040;-77
2022/10/17 10:33:28;;;;;;;3.05;1.60;;;;;;;26.44;69.80;96942.13;5010021;28;20070;-77
2022/10/17 10:36:03;;;;;;;5.03;1.40;;;;;;;27.48;64.84;96947.06;5008350;28;20107;-77
2022/10/17 10:38:31;;;;;;;4.03;1.52;;;;;;;27.29;64.69;96950.28;4996833;28;20493;-77
2022/10/17 10:41:06;;;;;;;3.33;1.50;;;;;;;26.76;70.41;96947.84;4949678;28;20498;-76
2022/10/17 10:43:35;;;;;;;4.32;1.60;;;;;;;27.90;64.66;96945.72;4944642;28;20556;-78
2022/10/17 10:46:05;;;;;;;3.75;1.70;;;;;;;28.13;65.77;96948.13;4971456;28;21805;-77
2022/10/17 10:48:35;;;;;;;5.30;1.75;;;;;;;28.21;65.28;96949.59;4947699;28;20125;-76
2022/10/17 10:51:10;;;;;;;5.18;2.42;;;;;;;28.64;59.01;96942.47;4949763;28;20143;-77
2022/10/17 10:53:44;;;;;;;2.97;1.35;;;;;;;28.63;59.70;96933.50;4931083;28;20494;-77
2022/10/17 10:56:21;;;;;;;4.00;1.83;;;;;;;28.65;62.34;96935.97;4949736;28;20462;-78
2022/10/17 10:59:03;;;;;;;4.22;1.65;;;;;;;28.96;68.26;96933.50;4941166;28;20720;-78
2022/10/17 11:01:49;;;;;;;7.63;2.53;;;;;;;28.94;65.64;96941.91;4938061;28;20147;-78
2022/10/17 11:04:35;;;;;;;4.95;2.03;;;;;;;29.10;64.81;96937.41;4888758;28;20043;-78
2022/10/17 11:07:11;;;;;;;8.38;1.98;;;;;;;29.02;67.41;96937.91;4903939;28;20118;-78
2022/10/17 11:09:47;;;;;;;7.18;1.85;;;;;;;28.97;75.07;96940.53;4891448;28;20039;-78
2022/10/17 11:12:20;;;;;;;7.57;2.30;;;;;;;28.52;79.25;96947.22;4871003;28;20766;-77
2022/10/17 11:15:13;;;;;;;3.08;1.35;;;;;;;27.89;67.25;96955.72;4892846;28;20121;-78
2022/10/17 11:17:55;;;;;;;4.43;1.90;;;;;;;28.23;62.29;96947.44;4953436;28;20032;-77
2022/10/17 11:20:33;;;;;;;4.53;1.40;;;;;;;27.80;68.62;96951.84;4781513;28;21054;-76
2022/10/17 11:23:13;;;;;;;5.07;1.45;;;;;;;27.40;69.22;96952.91;4815162;28;20116;-78
2022/10/17 11:25:40;;;;;;;2.22;1.35;;;;;;;27.99;66.46;96954.19;4959215;28;20044;-77
2022/10/17 11:28:17;;;;;;;3.83;1.50;;;;;;;27.54;72.20;96958.75;4960249;28;20581;-78
2022/10/17 11:30:55;;;;;;;7.63;4.35;;;;;;;28.21;68.17;96955.00;4915627;28;20044;-76
2022/10/17 11:33:49;;;;;;;3.33;1.75;;;;;;;27.65;72.43;96962.41;4968096;28;20838;-77
2022/10/17 11:36:18;;;;;;;4.25;1.50;;;;;;;28.05;67.84;96959.41;4944556;28;20127;-77
2022/10/17 11:38:54;;;;;;;3.08;1.10;;;;;;;27.88;67.19;96966.78;4950267;28;20399;-77
2022/10/17 11:41:28;;;;;;;4.65;1.88;;;;;;;28.12;63.29;96953.81;4988681;28;20032;-77
2022/10/17 11:44:02;;;;;;;2.22;1.30;;;;;;;27.77;62.02;96963.16;5007844;28;20076;-77
2022/10/17 11:46:29;;;;;;;2.50;1.35;;;;;;;28.08;56.04;96952.69;5011274;28;20466;-80
2022/10/17 11:49:01;;;;;;;12.50;1.70;;;;;;;27.68;53.17;96953.81;4970535;28;20044;-77
2022/10/17 11:51:29;;;;;;;3.30;1.75;;;;;;;28.09;56.19;96949.72;4913048;28;20105;-78